Time;durP1;ratioP1;P1;durP2;ratioP2;P2;SDS_P1;SDS_P2;PMS_P1;PMS_P2;Temp;Humidity;BMP_temperature;BMP_pressure;BME280_temperature;BME280_humidity;BME280_pressure;Samples;Min_cycle;Max_cycle;Signal;HPM_P1;HPM_P2
2023/08/15 00:00:57;;;;;;;9.63;8.23;;;;;;;;;;5043757;28;20495;-80
2023/08/15 00:03:25;;;;;;;12.23;7.60;;;;;;;;;;5043636;28;20466;-80
2023/08/15 00:05:51;;;;;;;9.47;7.63;;;;;;;;;;5040101;28;20483;-80
2023/08/15 00:08:18;;;;;;;11.57;8.30;;;;;;;;;;5043198;28;20998;-80
2023/08/15 00:10:44;;;;;;;12.33;7.17;;;;;;;;;;5039412;28;20471;-79
2023/08/15 00:13:11;;;;;;;12.83;7.67;;;;;;;;;;5042063;28;20482;-80
2023/08/15 00:15:37;;;;;;;12.83;7.57;;;;;;;;;;5045283;28;20468;-80
2023/08/15 00:18:03;;;;;;;12.00;8.23;;;;;;;;;;5044321;28;20475;-80
2023/08/15 00:20:31;;;;;;;10.23;7.93;;;;;;;;;;5042302;28;20472;-80
2023/08/15 00:22:58;;;;;;;9.33;8.43;;;;;;;;;;5043282;28;20486;-79
2023/08/15 00:25:25;;;;;;;10.70;8.00;;;;;;;;;;5047402;28;20895;-79
2023/08/15 00:27:52;;;;;;;11.87;8.20;;;;;;;;;;5046720;28;20463;-80
2023/08/15 00:30:18;;;;;;;10.60;8.80;;;;;;;;;;5046566;28;20468;-80
2023/08/15 00:32:44;;;;;;;12.20;8.10;;;;;;;;;;5043487;28;20969;-80
2023/08/15 00:35:11;;;;;;;9.00;7.50;;;;;;;;;;5043269;28;20457;-80
2023/08/15 00:37:39;;;;;;;10.27;7.53;;;;;;;;;;5046196;28;20502;-80
2023/08/15 00:40:06;;;;;;;12.30;7.80;;;;;;;;;;5050495;28;20469;-80
2023/08/15 00:42:32;;;;;;;11.00;8.20;;;;;;;;;;5043783;28;20492;-80
2023/08/15 00:44:58;;;;;;;10.67;8.20;;;;;;;;;;5043234;28;20831;-80
2023/08/15 00:47:25;;;;;;;9.23;8.03;;;;;;;;;;5045252;28;20489;-80
2023/08/15 00:49:53;;;;;;;11.20;7.53;;;;;;;;;;5045759;28;20432;-80
2023/08/15 00:52:19;;;;;;;9.57;8.10;;;;;;;;;;5046670;28;20487;-80
2023/08/15 00:54:47;;;;;;;11.57;7.40;;;;;;;;;;5046685;28;20663;-80
2023/08/15 00:57:14;;;;;;;12.30;8.43;;;;;;;;;;5045410;28;20566;-80
2023/08/15 00:59:43;;;;;;;10.93;7.57;;;;;;;;;;5045704;28;20841;-81
2023/08/15 01:02:09;;;;;;;8.70;7.07;;;;;;;;;;5043308;28;20847;-80
2023/08/15 01:04:36;;;;;;;13.73;8.10;;;;;;;;;;5046205;28;20455;-80
2023/08/15 01:07:02;;;;;;;10.47;7.70;;;;;;;;;;5044831;28;21016;-80
2023/08/15 01:09:29;;;;;;;13.27;7.17;;;;;;;;;;5045490;28;20988;-80
2023/08/15 01:11:58;;;;;;;12.27;8.33;;;;;;;;;;5043454;28;20483;-80
2023/08/15 01:14:30;;;;;;;11.70;7.90;;;;;;;;;;5046628;28;20466;-80
2023/08/15 01:16:57;;;;;;;16.90;9.27;;;;;;;;;;5040365;28;20489;-80
2023/08/15 01:19:29;;;;;;;9.03;7.90;;;;;;;;;;5041877;28;20469;-80
2023/08/15 01:21:57;;;;;;;10.03;9.03;;;;;;;;;;5040451;28;20476;-80
2023/08/15 01:24:25;;;;;;;8.90;7.93;;;;;;;;;;5045837;28;20463;-80
2023/08/15 01:26:52;;;;;;;9.93;8.93;;;;;;;;;;5045029;28;20477;-80
2023/08/15 01:29:18;;;;;;;12.50;8.90;;;;;;;;;;5046339;28;20471;-80
2023/08/15 01:31:51;;;;;;;16.23;9.40;;;;;;;;;;5046788;28;20860;-80
2023/08/15 01:34:21;;;;;;;12.57;9.00;;;;;;;;;;5043819;28;20468;-80
2023/08/15 01:36:49;;;;;;;14.63;9.70;;;;;;;;;;5046265;28;20483;-80
2023/08/15 01:39:19;;;;;;;18.13;9.33;;;;;;;;;;5045694;28;20467;-80
2023/08/15 01:41:47;;;;;;;17.17;9.80;;;;;;;;;;5041338;28;20481;-80
2023/08/15 01:44:14;;;;;;;12.23;8.80;;;;;;;;;;5043102;28;20464;-80
2023/08/15 01:46:40;;;;;;;9.87;8.37;;;;;;;;;;5042711;28;20469;-80
2023/08/15 01:49:07;;;;;;;11.93;8.97;;;;;;;;;;5043974;28;20475;-80
2023/08/15 01:51:33;;;;;;;12.80;8.77;;;;;;;;;;5042244;28;20479;-80
2023/08/15 01:54:01;;;;;;;12.87;8.63;;;;;;;;;;5042125;28;20968;-80
2023/08/15 01:56:28;;;;;;;10.87;7.87;;;;;;;;;;5042069;28;20476;-80
2023/08/15 01:58:56;;;;;;;13.33;9.03;;;;;;;;;;5045926;28;20988;-80
2023/08/15 02:01:22;;;;;;;12.57;9.43;;;;;;;;;;5043022;28;20479;-80
2023/08/15 02:03:48;;;;;;;12.40;9.10;;;;;;;;;;5043086;28;20468;-80
2023/08/15 02:06:14;;;;;;;9.70;8.70;;;;;;;;;;5046178;28;20507;-80
2023/08/15 02:08:41;;;;;;;12.30;9.07;;;;;;;;;;5043659;28;20875;-80
2023/08/15 02:11:07;;;;;;;13.10;8.50;;;;;;;;;;5045150;28;20844;-80
2023/08/15 02:13:34;;;;;;;10.30;8.53;;;;;;;;;;5044352;28;20483;-80
2023/08/15 02:16:01;;;;;;;14.43;9.30;;;;;;;;;;5042948;28;20479;-80
2023/08/15 02:18:29;;;;;;;10.73;8.70;;;;;;;;;;5047008;28;20458;-80
2023/08/15 02:20:55;;;;;;;11.20;8.80;;;;;;;;;;5043682;28;20487;-80
2023/08/15 02:23:22;;;;;;;10.10;8.43;;;;;;;;;;5046098;28;20483;-80
2023/08/15 02:25:48;;;;;;;13.23;8.93;;;;;;;;;;5044684;28;20477;-80
2023/08/15 02:28:14;;;;;;;11.00;9.40;;;;;;;;;;5044537;28;20467;-79
2023/08/15 02:30:41;;;;;;;13.50;9.70;;;;;;;;;;5048181;28;20471;-80
2023/08/15 02:33:08;;;;;;;10.50;9.50;;;;;;;;;;5047450;28;20487;-80
2023/08/15 02:35:39;;;;;;;12.70;8.73;;;;;;;;;;5043016;28;20468;-80
2023/08/15 02:38:05;;;;;;;11.80;8.70;;;;;;;;;;5042305;28;20463;-80
2023/08/15 02:40:31;;;;;;;11.30;7.67;;;;;;;;;;5041900;28;20480;-79
2023/08/15 02:42:57;;;;;;;14.37;9.23;;;;;;;;;;5044275;28;20469;-79
2023/08/15 02:45:24;;;;;;;11.57;8.60;;;;;;;;;;5045112;28;20483;-80
2023/08/15 02:47:52;;;;;;;12.43;8.00;;;;;;;;;;5047406;28;20468;-80
2023/08/15 02:50:21;;;;;;;9.00;8.13;;;;;;;;;;5045545;28;20467;-80
2023/08/15 02:52:48;;;;;;;9.13;8.23;;;;;;;;;;5039151;28;20479;-80
2023/08/15 02:55:16;;;;;;;13.33;9.60;;;;;;;;;;5044502;28;20480;-80
2023/08/15 02:57:42;;;;;;;11.50;8.70;;;;;;;;;;5043174;28;20861;-80
2023/08/15 03:00:10;;;;;;;13.10;8.97;;;;;;;;;;5043125;28;20480;-79
2023/08/15 03:02:37;;;;;;;16.20;9.40;;;;;;;;;;5042719;28;20541;-80
2023/08/15 03:05:03;;;;;;;12.33;8.93;;;;;;;;;;5043683;28;20472;-80
2023/08/15 03:07:31;;;;;;;12.63;9.50;;;;;;;;;;5044029;28;20813;-80
2023/08/15 03:09:57;;;;;;;15.97;9.43;;;;;;;;;;5040792;28;20453;-80
2023/08/15 03:12:24;;;;;;;10.90;9.70;;;;;;;;;;5043420;28;20471;-80
2023/08/15 03:14:50;;;;;;;10.60;9.50;;;;;;;;;;5045065;28;20452;-80
2023/08/15 03:17:18;;;;;;;13.60;8.80;;;;;;;;;;5041249;28;20487;-80
2023/08/15 03:19:45;;;;;;;13.07;10.73;;;;;;;;;;5045572;28;20456;-80
2023/08/15 03:22:11;;;;;;;14.73;10.80;;;;;;;;;;5042342;28;20479;-80
2023/08/15 03:24:39;;;;;;;11.70;10.33;;;;;;;;;;5041885;28;20471;-80
2023/08/15 03:27:05;;;;;;;11.83;10.47;;;;;;;;;;5041267;28;20475;-80
2023/08/15 03:29:32;;;;;;;14.17;11.23;;;;;;;;;;5042575;28;20464;-80
2023/08/15 03:31:58;;;;;;;12.40;10.63;;;;;;;;;;5042367;28;20615;-80
2023/08/15 03:34:25;;;;;;;15.10;11.47;;;;;;;;;;5043714;28;20460;-80
2023/08/15 03:36:51;;;;;;;12.93;11.43;;;;;;;;;;5039846;28;21024;-80
2023/08/15 03:39:17;;;;;;;15.20;11.13;;;;;;;;;;5042786;28;20848;-79
2023/08/15 03:41:46;;;;;;;16.80;11.03;;;;;;;;;;5041005;28;20488;-80
2023/08/15 03:44:12;;;;;;;11.60;10.27;;;;;;;;;;5042685;28;20460;-80
2023/08/15 03:46:39;;;;;;;14.90;11.30;;;;;;;;;;5042546;28;20482;-80
2023/08/15 03:49:05;;;;;;;13.73;10.73;;;;;;;;;;5043157;28;20490;-79
2023/08/15 03:51:31;;;;;;;14.17;11.87;;;;;;;;;;5042761;28;20623;-80
2023/08/15 03:53:58;;;;;;;17.63;12.53;;;;;;;;;;5042706;28;20873;-80
2023/08/15 03:56:24;;;;;;;14.13;12.17;;;;;;;;;;5041302;28;20486;-80
2023/08/15 03:58:52;;;;;;;18.20;11.23;;;;;;;;;;5047988;28;20463;-80
2023/08/15 04:01:18;;;;;;;13.30;10.53;;;;;;;;;;5049917;28;20487;-80
2023/08/15 04:03:45;;;;;;;17.50;11.77;;;;;;;;;;5049570;28;20543;-80
2023/08/15 04:06:12;;;;;;;19.33;11.10;;;;;;;;;;5049238;28;20495;-80
2023/08/15 04:08:39;;;;;;;15.37;11.23;;;;;;;;;;5052025;28;20460;-80
2023/08/15 04:11:05;;;;;;;15.20;10.87;;;;;;;;;;5047994;28;20480;-80
2023/08/15 04:13:31;;;;;;;14.90;11.30;;;;;;;;;;5051625;28;20469;-80
2023/08/15 04:15:59;;;;;;;13.90;11.67;;;;;;;;;;5047196;28;20474;-80
2023/08/15 04:18:25;;;;;;;16.53;11.23;;;;;;;;;;5052760;28;20475;-80
2023/08/15 04:20:52;;;;;;;15.17;11.30;;;;;;;;;;5048224;28;20480;-80
2023/08/15 04:23:18;;;;;;;17.17;13.03;;;;;;;;;;5050184;28;20494;-80
2023/08/15 04:25:46;;;;;;;21.50;13.90;;;;;;;;;;5049046;28;20483;-80
2023/08/15 04:28:13;;;;;;;16.73;12.90;;;;;;;;;;5050638;28;20455;-80
2023/08/15 04:30:39;;;;;;;15.40;12.20;;;;;;;;;;5047150;28;20558;-79
2023/08/15 04:33:07;;;;;;;17.30;12.70;;;;;;;;;;5047515;28;20480;-80
2023/08/15 04:35:33;;;;;;;13.63;11.70;;;;;;;;;;5049689;28;20538;-80
2023/08/15 04:38:00;;;;;;;12.97;11.43;;;;;;;;;;5050262;28;20488;-80
2023/08/15 04:40:33;;;;;;;14.57;11.50;;;;;;;;;;5050441;28;20494;-80
2023/08/15 04:42:59;;;;;;;14.80;11.23;;;;;;;;;;5049105;28;20477;-80
2023/08/15 04:45:26;;;;;;;17.17;11.80;;;;;;;;;;5051290;28;20464;-80
2023/08/15 04:47:53;;;;;;;15.00;11.93;;;;;;;;;;5051315;28;20451;-80
2023/08/15 04:50:20;;;;;;;13.90;12.47;;;;;;;;;;5045076;28;20472;-80
2023/08/15 04:52:47;;;;;;;13.23;11.83;;;;;;;;;;5054032;28;20491;-80
2023/08/15 04:55:15;;;;;;;17.47;13.10;;;;;;;;;;5046361;28;20475;-80
2023/08/15 04:57:41;;;;;;;19.50;13.17;;;;;;;;;;5048362;28;20514;-80
2023/08/15 05:00:08;;;;;;;16.93;15.20;;;;;;;;;;5047624;28;20479;-80
2023/08/15 05:02:35;;;;;;;17.20;13.47;;;;;;;;;;5046004;28;20491;-80
2023/08/15 05:05:02;;;;;;;16.00;11.97;;;;;;;;;;5050185;28;20469;-80
2023/08/15 05:07:29;;;;;;;15.50;12.07;;;;;;;;;;5051195;28;20459;-80
2023/08/15 05:09:56;;;;;;;16.27;12.47;;;;;;;;;;5044925;28;20957;-80
2023/08/15 05:12:22;;;;;;;16.10;12.00;;;;;;;;;;5047188;28;20484;-80
2023/08/15 05:14:48;;;;;;;18.40;12.60;;;;;;;;;;5041854;28;20453;-80
2023/08/15 05:17:15;;;;;;;15.33;12.27;;;;;;;;;;5044073;28;20535;-80
2023/08/15 05:19:41;;;;;;;14.23;12.70;;;;;;;;;;5046647;28;20472;-81
2023/08/15 05:22:08;;;;;;;17.23;12.57;;;;;;;;;;5047206;28;20491;-80
2023/08/15 05:24:35;;;;;;;16.37;12.50;;;;;;;;;;5046519;28;20456;-80
2023/08/15 05:27:02;;;;;;;19.03;12.20;;;;;;;;;;5045208;28;20468;-80
2023/08/15 05:29:28;;;;;;;16.70;13.67;;;;;;;;;;5043370;28;21160;-80
2023/08/15 05:31:55;;;;;;;18.87;13.47;;;;;;;;;;5040864;28;20853;-80
2023/08/15 05:34:21;;;;;;;19.80;15.23;;;;;;;;;;5048727;28;20456;-80
2023/08/15 05:36:47;;;;;;;15.20;12.07;;;;;;;;;;5047071;28;20479;-79
2023/08/15 05:39:14;;;;;;;18.37;14.20;;;;;;;;;;5046554;28;20467;-79
2023/08/15 05:41:41;;;;;;;22.13;16.37;;;;;;;;;;5047959;28;21032;-79
2023/08/15 05:44:08;;;;;;;17.03;14.90;;;;;;;;;;5046958;28;20453;-79
2023/08/15 05:46:34;;;;;;;19.57;15.50;;;;;;;;;;5044999;28;20483;-79
2023/08/15 05:49:00;;;;;;;20.53;16.03;;;;;;;;;;5045713;28;20544;-78
2023/08/15 05:51:27;;;;;;;20.60;15.80;;;;;;;;;;5049211;28;20484;-78
2023/08/15 05:53:53;;;;;;;19.43;16.20;;;;;;;;;;5049314;28;20459;-78
2023/08/15 05:56:19;;;;;;;21.23;15.80;;;;;;;;;;5045398;28;20470;-78
2023/08/15 05:58:47;;;;;;;18.03;16.13;;;;;;;;;;5046956;28;21031;-79
2023/08/15 06:01:13;;;;;;;18.60;15.27;;;;;;;;;;5045633;28;20478;-79
2023/08/15 06:03:40;;;;;;;17.00;14.97;;;;;;;;;;5046384;28;20826;-79
2023/08/15 06:06:08;;;;;;;17.77;15.97;;;;;;;;;;5044841;28;20472;-79
2023/08/15 06:08:34;;;;;;;16.33;14.60;;;;;;;;;;5044650;28;20451;-79
2023/08/15 06:11:00;;;;;;;18.80;15.50;;;;;;;;;;5044766;28;20514;-79
2023/08/15 06:13:27;;;;;;;16.57;14.87;;;;;;;;;;5045639;28;20483;-79
2023/08/15 06:15:54;;;;;;;22.90;16.17;;;;;;;;;;5042706;28;20480;-79
2023/08/15 06:18:21;;;;;;;20.00;15.60;;;;;;;;;;5042259;28;20502;-79
2023/08/15 06:20:49;;;;;;;17.10;14.60;;;;;;;;;;5041240;28;20475;-79
2023/08/15 06:23:15;;;;;;;16.80;15.10;;;;;;;;;;5039811;28;20489;-79
2023/08/15 06:25:41;;;;;;;17.37;15.53;;;;;;;;;;5043251;28;20455;-79
2023/08/15 06:28:09;;;;;;;18.00;15.70;;;;;;;;;;5042968;28;20445;-79
2023/08/15 06:30:35;;;;;;;17.53;15.53;;;;;;;;;;5044294;28;20477;-79
2023/08/15 06:33:03;;;;;;;17.57;15.80;;;;;;;;;;5041185;28;20498;-79
2023/08/15 06:35:30;;;;;;;18.60;14.20;;;;;;;;;;5041743;28;20478;-78
2023/08/15 06:37:57;;;;;;;19.57;16.33;;;;;;;;;;5039932;28;20483;-79
2023/08/15 06:40:23;;;;;;;16.27;14.70;;;;;;;;;;5044164;28;20518;-79
2023/08/15 06:42:50;;;;;;;18.23;15.57;;;;;;;;;;5045977;28;20488;-79
2023/08/15 06:45:19;;;;;;;19.43;16.50;;;;;;;;;;5031917;28;21009;-79
2023/08/15 06:47:45;;;;;;;27.67;16.07;;;;;;;;;;5043635;28;20456;-79
2023/08/15 06:50:13;;;;;;;20.93;15.33;;;;;;;;;;5041913;28;20484;-79
2023/08/15 06:52:39;;;;;;;19.53;16.87;;;;;;;;;;5043092;28;20477;-79
2023/08/15 06:55:06;;;;;;;15.00;13.60;;;;;;;;;;5042275;28;20487;-80
2023/08/15 06:57:33;;;;;;;18.33;15.13;;;;;;;;;;5044686;28;20484;-79
2023/08/15 06:59:59;;;;;;;16.43;14.83;;;;;;;;;;5041813;28;20439;-80
2023/08/15 07:02:26;;;;;;;16.50;14.80;;;;;;;;;;5041966;28;20836;-79
2023/08/15 07:04:52;;;;;;;17.73;14.70;;;;;;;;;;5042891;28;20437;-80
2023/08/15 07:07:20;;;;;;;18.53;15.57;;;;;;;;;;5042438;28;20474;-79
2023/08/15 07:09:47;;;;;;;16.73;15.07;;;;;;;;;;5045219;28;20459;-80
2023/08/15 07:12:17;;;;;;;18.03;16.20;;;;;;;;;;5045940;28;20521;-79
2023/08/15 07:14:46;;;;;;;22.10;15.67;;;;;;;;;;5044335;28;20468;-80
2023/08/15 07:17:12;;;;;;;18.17;15.23;;;;;;;;;;5041864;28;20472;-79
2023/08/15 07:19:38;;;;;;;15.90;14.40;;;;;;;;;;5046394;28;20447;-79
2023/08/15 07:22:05;;;;;;;19.17;15.27;;;;;;;;;;5040930;28;20476;-79
2023/08/15 07:24:33;;;;;;;16.37;14.67;;;;;;;;;;5044657;28;20437;-79
2023/08/15 07:26:59;;;;;;;16.60;14.70;;;;;;;;;;5042390;28;20488;-79
2023/08/15 07:29:26;;;;;;;18.43;15.60;;;;;;;;;;5041637;28;20947;-79
2023/08/15 07:31:52;;;;;;;16.93;15.23;;;;;;;;;;5041370;28;20476;-79
2023/08/15 07:34:18;;;;;;;18.53;15.57;;;;;;;;;;5042467;28;20467;-79
2023/08/15 07:36:45;;;;;;;17.00;14.87;;;;;;;;;;5043406;28;20471;-79
2023/08/15 07:39:12;;;;;;;17.87;16.07;;;;;;;;;;5043915;28;20495;-79
2023/08/15 07:41:41;;;;;;;16.50;14.80;;;;;;;;;;5045449;28;20472;-79
2023/08/15 07:44:08;;;;;;;20.20;16.10;;;;;;;;;;5044490;28;20456;-79
2023/08/15 07:46:34;;;;;;;16.63;13.80;;;;;;;;;;5039575;28;20480;-79
2023/08/15 07:49:00;;;;;;;16.43;14.70;;;;;;;;;;5040983;28;20488;-79
2023/08/15 07:51:27;;;;;;;21.60;15.20;;;;;;;;;;5044878;28;20476;-79
2023/08/15 07:53:54;;;;;;;19.23;15.90;;;;;;;;;;5043921;28;20440;-79
2023/08/15 07:56:20;;;;;;;16.23;14.63;;;;;;;;;;5043692;28;20851;-79
2023/08/15 07:58:50;;;;;;;16.97;13.80;;;;;;;;;;5044201;28;20479;-79
2023/08/15 08:01:16;;;;;;;16.73;15.10;;;;;;;;;;5042805;28;20495;-79
2023/08/15 08:03:43;;;;;;;19.23;15.20;;;;;;;;;;5042665;28;20515;-79
2023/08/15 08:06:11;;;;;;;25.33;14.47;;;;;;;;;;5042435;28;20471;-79
2023/08/15 08:08:38;;;;;;;17.87;15.23;;;;;;;;;;5041400;28;20443;-79
2023/08/15 08:11:04;;;;;;;17.37;15.67;;;;;;;;;;5042099;28;20842;-79
2023/08/15 08:13:30;;;;;;;16.53;14.67;;;;;;;;;;5042478;28;20985;-80
2023/08/15 08:15:59;;;;;;;17.10;15.40;;;;;;;;;;5040255;28;20994;-79
2023/08/15 08:18:25;;;;;;;16.33;14.37;;;;;;;;;;5046720;28;20467;-79
2023/08/15 08:20:52;;;;;;;18.17;16.13;;;;;;;;;;5042174;28;20476;-79
2023/08/15 08:23:18;;;;;;;15.53;13.93;;;;;;;;;;5041021;28;20468;-79
2023/08/15 08:25:45;;;;;;;21.27;17.20;;;;;;;;;;5040688;28;20464;-79
2023/08/15 08:28:12;;;;;;;20.40;18.50;;;;;;;;;;5038867;28;20441;-79
2023/08/15 08:30:42;;;;;;;20.77;18.67;;;;;;;;;;5044091;28;20476;-79
2023/08/15 08:33:10;;;;;;;25.83;23.07;;;;;;;;;;5043740;28;20479;-79
2023/08/15 08:35:36;;;;;;;29.43;24.30;;;;;;;;;;5042639;28;20479;-79
2023/08/15 08:38:03;;;;;;;30.20;27.03;;;;;;;;;;5046084;28;20490;-80
2023/08/15 08:40:30;;;;;;;36.57;29.20;;;;;;;;;;5039341;28;21016;-79
2023/08/15 08:42:56;;;;;;;31.47;28.17;;;;;;;;;;5037226;28;20487;-79
2023/08/15 08:45:24;;;;;;;30.70;27.67;;;;;;;;;;5044438;28;20467;-79
2023/08/15 08:47:50;;;;;;;30.03;26.83;;;;;;;;;;5043691;28;20543;-80
2023/08/15 08:50:18;;;;;;;30.53;27.33;;;;;;;;;;5046809;28;20496;-79
2023/08/15 08:52:48;;;;;;;28.67;25.77;;;;;;;;;;5045505;28;20468;-79
2023/08/15 08:55:15;;;;;;;32.37;29.17;;;;;;;;;;5044238;28;20517;-80
2023/08/15 08:57:45;;;;;;;32.70;28.90;;;;;;;;;;5042241;28;20460;-79
2023/08/15 09:00:13;;;;;;;31.90;26.70;;;;;;;;;;5042037;28;20476;-80
2023/08/15 09:02:40;;;;;;;29.63;26.73;;;;;;;;;;5047708;28;20490;-79
2023/08/15 09:05:07;;;;;;;29.80;26.80;;;;;;;;;;5049681;28;20482;-79
2023/08/15 09:07:35;;;;;;;29.97;27.23;;;;;;;;;;5047047;28;20448;-79
2023/08/15 09:10:04;;;;;;;30.27;27.03;;;;;;;;;;5046439;28;20469;-80
2023/08/15 09:12:35;;;;;;;29.70;26.70;;;;;;;;;;5047194;28;20483;-79
2023/08/15 09:15:01;;;;;;;29.43;25.37;;;;;;;;;;5040857;28;20958;-79
2023/08/15 09:17:27;;;;;;;27.33;24.70;;;;;;;;;;5044608;28;20864;-79
2023/08/15 09:19:54;;;;;;;25.40;23.00;;;;;;;;;;5042945;28;20511;-80
2023/08/15 09:22:23;;;;;;;25.17;22.50;;;;;;;;;;5043497;28;20471;-80
2023/08/15 09:24:52;;;;;;;22.80;20.43;;;;;;;;;;5044008;28;20452;-80
2023/08/15 09:27:18;;;;;;;21.10;19.10;;;;;;;;;;5047503;28;20452;-80
2023/08/15 09:29:45;;;;;;;20.07;18.00;;;;;;;;;;5045392;28;20432;-80
2023/08/15 09:32:11;;;;;;;23.27;16.60;;;;;;;;;;5044830;28;20553;-79
2023/08/15 09:34:37;;;;;;;17.30;15.50;;;;;;;;;;5043783;28;20441;-80
2023/08/15 09:37:04;;;;;;;17.50;14.60;;;;;;;;;;5044645;28;20476;-79
2023/08/15 09:39:30;;;;;;;16.73;15.03;;;;;;;;;;5045532;28;21051;-79
2023/08/15 09:41:58;;;;;;;17.07;13.90;;;;;;;;;;5044057;28;20854;-80
2023/08/15 09:44:33;;;;;;;16.13;13.80;;;;;;;;;;5043214;28;20444;-80
2023/08/15 09:47:00;;;;;;;15.60;11.70;;;;;;;;;;5043982;28;20499;-80
2023/08/15 09:49:28;;;;;;;14.50;12.10;;;;;;;;;;5043839;28;20448;-79
2023/08/15 09:51:56;;;;;;;13.30;11.07;;;;;;;;;;5045615;28;20495;-80
2023/08/15 09:54:24;;;;;;;13.43;9.80;;;;;;;;;;5046347;28;20930;-79
2023/08/15 09:56:50;;;;;;;10.83;9.73;;;;;;;;;;5046601;28;20845;-80
2023/08/15 09:59:18;;;;;;;14.13;9.80;;;;;;;;;;5046607;28;20515;-79
2023/08/15 10:01:46;;;;;;;16.77;12.07;;;;;;;;;;5060923;28;20530;-79
2023/08/15 10:04:13;;;;;;;10.30;9.20;;;;;;;;;;5047306;28;20462;-79
2023/08/15 10:06:42;;;;;;;11.00;8.27;;;;;;;;;;5046873;28;20471;-79
2023/08/15 10:09:10;;;;;;;10.60;9.50;;;;;;;;;;5044204;28;20447;-79
2023/08/15 10:11:37;;;;;;;13.67;7.03;;;;;;;;;;5044447;28;21071;-79
2023/08/15 10:14:04;;;;;;;11.93;7.57;;;;;;;;;;5044447;28;20447;-79
2023/08/15 10:16:31;;;;;;;14.03;7.97;;;;;;;;;;5041607;28;20479;-79
2023/08/15 10:18:58;;;;;;;10.30;5.97;;;;;;;;;;5045261;28;20480;-79
2023/08/15 10:21:26;;;;;;;11.07;5.40;;;;;;;;;;5039564;28;20484;-79
2023/08/15 10:23:55;;;;;;;4.43;4.03;;;;;;;;;;5045697;28;20452;-80
2023/08/15 10:26:22;;;;;;;4.73;3.90;;;;;;;;;;5042822;28;20467;-79
2023/08/15 10:28:48;;;;;;;7.50;4.40;;;;;;;;;;5044242;28;20831;-80
2023/08/15 10:31:14;;;;;;;6.83;3.80;;;;;;;;;;5047776;28;20499;-79
2023/08/15 10:33:44;;;;;;;8.23;3.90;;;;;;;;;;5043908;28;21024;-79
2023/08/15 10:36:11;;;;;;;6.63;3.73;;;;;;;;;;5043271;28;21005;-80
2023/08/15 10:38:41;;;;;;;5.53;3.63;;;;;;;;;;5043588;28;20488;-79
2023/08/15 10:41:08;;;;;;;7.77;4.00;;;;;;;;;;5044135;28;20477;-80
2023/08/15 10:43:35;;;;;;;4.77;3.83;;;;;;;;;;5041133;28;20548;-79
2023/08/15 10:46:02;;;;;;;8.43;4.00;;;;;;;;;;5044135;28;20468;-80
2023/08/15 10:48:55;;;;;;;10.30;3.77;;;;;;;;;;5044880;28;20475;-80
2023/08/15 10:51:22;;;;;;;7.57;3.93;;;;;;;;;;5046774;28;20496;-79
2023/08/15 10:53:49;;;;;;;4.17;2.57;;;;;;;;;;5047823;28;20436;-79
2023/08/15 10:56:17;;;;;;;7.73;3.03;;;;;;;;;;5042620;28;20487;-79
2023/08/15 10:58:44;;;;;;;3.10;2.90;;;;;;;;;;5042693;28;20488;-79
2023/08/15 11:01:10;;;;;;;5.83;2.77;;;;;;;;;;5043243;28;20467;-79
2023/08/15 11:03:37;;;;;;;3.00;2.60;;;;;;;;;;5046254;28;20478;-79
2023/08/15 11:06:07;;;;;;;2.90;2.27;;;;;;;;;;5039948;28;20460;-80
2023/08/15 11:08:34;;;;;;;4.60;2.67;;;;;;;;;;5041968;28;20448;-80
2023/08/15 11:11:00;;;;;;;4.17;2.93;;;;;;;;;;5044482;28;20854;-79
2023/08/15 11:13:26;;;;;;;5.03;2.73;;;;;;;;;;5044616;28;20468;-79
2023/08/15 11:15:53;;;;;;;3.27;2.73;;;;;;;;;;5045261;28;20512;-80
2023/08/15 11:18:22;;;;;;;6.30;3.07;;;;;;;;;;5043123;28;20912;-79
2023/08/15 11:20:48;;;;;;;5.20;2.40;;;;;;;;;;5040501;28;20545;-80
2023/08/15 11:23:16;;;;;;;3.70;2.27;;;;;;;;;;5044292;28;21008;-79
2023/08/15 11:25:43;;;;;;;4.07;2.90;;;;;;;;;;5042522;28;20861;-80
2023/08/15 11:28:09;;;;;;;4.43;2.87;;;;;;;;;;5041309;28;20807;-80
2023/08/15 11:30:36;;;;;;;5.60;2.70;;;;;;;;;;5042232;28;20464;-80
2023/08/15 11:33:02;;;;;;;9.60;2.97;;;;;;;;;;5041830;28;20484;-79
2023/08/15 11:35:29;;;;;;;4.07;2.53;;;;;;;;;;5046488;28;20465;-80
2023/08/15 11:37:55;;;;;;;3.73;2.53;;;;;;;;;;5041320;28;20444;-79
2023/08/15 11:40:23;;;;;;;3.47;2.47;;;;;;;;;;5040974;28;20997;-80
2023/08/15 11:42:50;;;;;;;5.30;2.70;;;;;;;;;;5040397;28;20510;-79
2023/08/15 11:45:20;;;;;;;5.70;3.00;;;;;;;;;;5045231;28;20476;-80
2023/08/15 11:47:55;;;;;;;6.53;2.97;;;;;;;;;;5042777;28;20503;-79
2023/08/15 11:50:21;;;;;;;6.70;3.07;;;;;;;;;;5039864;28;21087;-80
2023/08/15 11:52:48;;;;;;;3.37;2.50;;;;;;;;;;5044026;28;20511;-80
2023/08/15 11:55:15;;;;;;;2.70;2.30;;;;;;;;;;5039896;28;20987;-80
2023/08/15 11:57:45;;;;;;;4.90;2.40;;;;;;;;;;5046396;28;20467;-80
2023/08/15 12:00:12;;;;;;;4.20;3.10;;;;;;;;;;5044870;28;20476;-80
2023/08/15 12:02:42;;;;;;;3.70;2.80;;;;;;;;;;5039883;28;20481;-80
2023/08/15 12:05:10;;;;;;;3.03;2.60;;;;;;;;;;5039465;28;20886;-79
2023/08/15 12:07:36;;;;;;;3.93;2.47;;;;;;;;;;5038853;28;20538;-79
2023/08/15 12:10:05;;;;;;;3.87;2.20;;;;;;;;;;5042854;28;20989;-80
2023/08/15 12:12:36;;;;;;;4.50;2.80;;;;;;;;;;5041611;28;20690;-80
2023/08/15 12:15:07;;;;;;;4.90;2.77;;;;;;;;;;5041916;28;20471;-79
2023/08/15 12:17:34;;;;;;;4.40;2.30;;;;;;;;;;5041004;28;20483;-80
2023/08/15 12:20:01;;;;;;;2.73;2.33;;;;;;;;;;5046126;28;23550;-80
2023/08/15 12:22:27;;;;;;;4.07;2.27;;;;;;;;;;5045473;28;20477;-79
2023/08/15 12:24:54;;;;;;;4.73;2.47;;;;;;;;;;5047059;28;20451;-80
2023/08/15 12:27:20;;;;;;;4.43;2.50;;;;;;;;;;5046446;28;20509;-79
2023/08/15 12:29:47;;;;;;;4.40;2.57;;;;;;;;;;5045323;28;20444;-80
2023/08/15 12:32:15;;;;;;;3.03;2.43;;;;;;;;;;5045854;28;20490;-80
2023/08/15 12:34:44;;;;;;;2.67;2.00;;;;;;;;;;5048574;28;20447;-81
2023/08/15 12:37:10;;;;;;;2.33;2.13;;;;;;;;;;5044672;28;20448;-79
2023/08/15 12:39:36;;;;;;;3.23;2.20;;;;;;;;;;5050265;28;20483;-79
2023/08/15 12:42:03;;;;;;;3.90;1.93;;;;;;;;;;5046369;28;21014;-79
2023/08/15 12:44:29;;;;;;;3.33;2.07;;;;;;;;;;5046636;28;20460;-79
2023/08/15 12:46:55;;;;;;;2.33;2.13;;;;;;;;;;5046543;28;20476;-79
2023/08/15 12:49:23;;;;;;;5.40;2.00;;;;;;;;;;5046188;28;20436;-79
2023/08/15 12:51:50;;;;;;;5.03;2.53;;;;;;;;;;5047687;28;20486;-79
2023/08/15 12:54:17;;;;;;;3.43;2.40;;;;;;;;;;5047508;28;20448;-79
2023/08/15 12:56:43;;;;;;;3.43;2.13;;;;;;;;;;5046025;28;20518;-79
2023/08/15 12:59:09;;;;;;;4.17;2.47;;;;;;;;;;5044507;28;20463;-79
2023/08/15 13:01:36;;;;;;;3.63;1.90;;;;;;;;;;5045821;28;20479;-80
2023/08/15 13:04:02;;;;;;;2.93;2.00;;;;;;;;;;5046294;28;20497;-79
2023/08/15 13:06:30;;;;;;;4.00;2.57;;;;;;;;;;5046791;28;20481;-79
2023/08/15 13:08:56;;;;;;;2.80;2.40;;;;;;;;;;5045064;28;20452;-79
2023/08/15 13:11:22;;;;;;;2.80;2.23;;;;;;;;;;5045767;28;20855;-79
2023/08/15 13:13:49;;;;;;;4.67;2.20;;;;;;;;;;5045627;28;20447;-80
2023/08/15 13:16:15;;;;;;;5.50;2.63;;;;;;;;;;5041715;28;20892;-80
2023/08/15 13:18:42;;;;;;;4.33;1.93;;;;;;;;;;5048683;28;21076;-79
2023/08/15 13:21:08;;;;;;;3.00;2.00;;;;;;;;;;5045988;28;20471;-80
2023/08/15 13:23:36;;;;;;;3.50;2.40;;;;;;;;;;5046639;28;20480;-79
2023/08/15 13:26:02;;;;;;;5.40;2.20;;;;;;;;;;5047883;28;20475;-79
2023/08/15 13:28:28;;;;;;;5.50;2.77;;;;;;;;;;5045636;28;20943;-79
2023/08/15 13:30:55;;;;;;;5.13;2.43;;;;;;;;;;5044526;28;21032;-80
2023/08/15 13:33:21;;;;;;;4.47;2.40;;;;;;;;;;5042396;28;20851;-79
2023/08/15 13:35:47;;;;;;;3.23;2.53;;;;;;;;;;5045920;28;21032;-79
2023/08/15 13:38:14;;;;;;;4.33;2.70;;;;;;;;;;5048115;28;20950;-79
2023/08/15 13:40:42;;;;;;;2.30;2.10;;;;;;;;;;5047696;28;20473;-80
2023/08/15 13:43:08;;;;;;;5.10;2.23;;;;;;;;;;5044227;28;20556;-80
2023/08/15 13:45:35;;;;;;;3.60;2.40;;;;;;;;;;5047586;28;20478;-80
2023/08/15 13:48:01;;;;;;;5.73;2.90;;;;;;;;;;5040874;28;20463;-80
2023/08/15 13:50:28;;;;;;;3.17;2.60;;;;;;;;;;5045720;28;20467;-80
2023/08/15 13:52:54;;;;;;;2.90;2.60;;;;;;;;;;5046585;28;20480;-80
2023/08/15 13:55:20;;;;;;;5.50;3.03;;;;;;;;;;5044085;28;20485;-79
2023/08/15 13:57:48;;;;;;;5.13;3.00;;;;;;;;;;5044451;28;20460;-79
2023/08/15 14:00:16;;;;;;;2.70;2.50;;;;;;;;;;5043964;28;20474;-79
2023/08/15 14:02:43;;;;;;;3.70;2.70;;;;;;;;;;5044839;28;20877;-80
2023/08/15 14:05:12;;;;;;;48.50;6.83;;;;;;;;;;5044770;28;20546;-80
2023/08/15 14:07:40;;;;;;;3.00;2.70;;;;;;;;;;5045997;28;20468;-80
2023/08/15 14:10:09;;;;;;;3.73;2.40;;;;;;;;;;5045307;28;20471;-80
2023/08/15 14:12:35;;;;;;;3.23;2.93;;;;;;;;;;5046013;28;20530;-79
2023/08/15 14:15:04;;;;;;;5.07;3.60;;;;;;;;;;5043070;28;20464;-79
2023/08/15 14:17:30;;;;;;;5.40;3.20;;;;;;;;;;5045409;28;20503;-79
2023/08/15 14:19:57;;;;;;;4.87;3.10;;;;;;;;;;5044697;28;20489;-80
2023/08/15 14:22:24;;;;;;;3.73;2.80;;;;;;;;;;5043154;28;20480;-79
2023/08/15 14:24:52;;;;;;;4.20;3.37;;;;;;;;;;5046466;28;20972;-81
2023/08/15 14:27:18;;;;;;;4.10;3.10;;;;;;;;;;5044350;28;20462;-80